Costa Marques, Brazil
Current Conditions -  °F | °C
As of 12:00 PM on Thursday 30 Oct 2014 (Local Time) from SLMG Reporting Station
Scattered Clouds Scattered Clouds  
Wind Chill: 32°   Ceiling: Unl
Heat Index: 38°   Visibility: 6mi
Dew Point: 24°   Wind: 17mph
Humidity: 62%   Direction: 320°NW
Pressure: 29.8"   Gusts: NA
Location:  12.45°S, 64.23°W
Report Text: SLMG 301600Z 32015KT 9999 FEW017 SCT080 32/24 Q1009
Loading
Personal Weather Stations






























Interactive Weather Map
Tropical Storm Tracking
New forecast layout! Learn more

10-Day Weather Forecast

Advertisements
Track Severe Weather on mobile